Terminal Aerodrome Forecast
Issued by NWS Jackson, MS

Home | Current Version | Previous Version | Text Only | Print | Product List | Glossary On
Versions: 1 2 3 4 5 6 7 8 9 10 11 12
431
FTUS44 KJAN 112322
TAFHBG
TAF
KHBG 112322Z 1200/1224 25007KT P6SM SKC
     FM120700 00000KT 3SM BR BKN007
     FM121000 21002KT 1/2SM FG OVC001
     FM121500 27008KT P6SM BKN025
     FM121700 28011G17KT P6SM BKN250=

USA.gov is the U.S. government's official web portal to all federal, state and local government web resources and services.